sensor_id;sensor_type;location;lat;lon;timestamp;P1;durP1;ratioP1;P2;durP2;ratioP2
26540;SDS011;14206;50.202;10.948;2023-03-24T00:00:24;3.70;;;3.05;;
26540;SDS011;14206;50.202;10.948;2023-03-24T00:02:51;3.40;;;3.10;;
26540;SDS011;14206;50.202;10.948;2023-03-24T00:05:19;3.30;;;3.00;;
26540;SDS011;14206;50.202;10.948;2023-03-24T00:07:47;4.18;;;3.25;;
26540;SDS011;14206;50.202;10.948;2023-03-24T00:10:20;4.05;;;3.50;;
26540;SDS011;14206;50.202;10.948;2023-03-24T00:12:48;3.30;;;3.00;;
26540;SDS011;14206;50.202;10.948;2023-03-24T00:15:17;3.38;;;3.08;;
26540;SDS011;14206;50.202;10.948;2023-03-24T00:17:47;3.78;;;3.22;;
26540;SDS011;14206;50.202;10.948;2023-03-24T00:20:18;3.47;;;2.90;;
26540;SDS011;14206;50.202;10.948;2023-03-24T00:22:48;3.67;;;2.72;;
26540;SDS011;14206;50.202;10.948;2023-03-24T00:25:22;3.70;;;3.08;;
26540;SDS011;14206;50.202;10.948;2023-03-24T00:27:55;3.40;;;3.00;;
26540;SDS011;14206;50.202;10.948;2023-03-24T00:30:23;4.10;;;3.47;;
26540;SDS011;14206;50.202;10.948;2023-03-24T00:32:51;4.45;;;3.10;;
26540;SDS011;14206;50.202;10.948;2023-03-24T00:35:19;3.42;;;2.63;;
26540;SDS011;14206;50.202;10.948;2023-03-24T00:37:46;3.70;;;2.58;;
26540;SDS011;14206;50.202;10.948;2023-03-24T00:40:15;3.08;;;2.60;;
26540;SDS011;14206;50.202;10.948;2023-03-24T00:42:44;3.95;;;3.35;;
26540;SDS011;14206;50.202;10.948;2023-03-24T00:45:14;3.28;;;2.90;;
26540;SDS011;14206;50.202;10.948;2023-03-24T00:47:46;4.63;;;3.08;;
26540;SDS011;14206;50.202;10.948;2023-03-24T00:50:17;3.80;;;3.40;;
26540;SDS011;14206;50.202;10.948;2023-03-24T00:52:47;3.60;;;3.15;;
26540;SDS011;14206;50.202;10.948;2023-03-24T00:55:14;3.70;;;3.30;;
26540;SDS011;14206;50.202;10.948;2023-03-24T00:57:44;4.72;;;3.30;;
26540;SDS011;14206;50.202;10.948;2023-03-24T01:00:20;5.70;;;3.63;;
26540;SDS011;14206;50.202;10.948;2023-03-24T01:02:52;4.53;;;3.55;;
26540;SDS011;14206;50.202;10.948;2023-03-24T01:05:22;3.95;;;3.20;;
26540;SDS011;14206;50.202;10.948;2023-03-24T01:07:55;4.32;;;3.30;;
26540;SDS011;14206;50.202;10.948;2023-03-24T01:10:23;3.22;;;2.88;;
26540;SDS011;14206;50.202;10.948;2023-03-24T01:12:55;3.15;;;2.55;;
26540;SDS011;14206;50.202;10.948;2023-03-24T01:15:24;3.35;;;2.63;;
26540;SDS011;14206;50.202;10.948;2023-03-24T01:17:54;4.05;;;3.10;;
26540;SDS011;14206;50.202;10.948;2023-03-24T01:20:23;3.38;;;3.08;;
26540;SDS011;14206;50.202;10.948;2023-03-24T01:22:50;3.60;;;2.45;;
26540;SDS011;14206;50.202;10.948;2023-03-24T01:25:19;3.17;;;2.50;;
26540;SDS011;14206;50.202;10.948;2023-03-24T01:27:48;2.80;;;2.13;;
26540;SDS011;14206;50.202;10.948;2023-03-24T01:30:17;2.55;;;2.08;;
26540;SDS011;14206;50.202;10.948;2023-03-24T01:32:47;4.43;;;2.58;;
26540;SDS011;14206;50.202;10.948;2023-03-24T01:35:14;4.30;;;2.83;;
26540;SDS011;14206;50.202;10.948;2023-03-24T01:37:41;2.80;;;2.28;;
26540;SDS011;14206;50.202;10.948;2023-03-24T01:40:09;2.40;;;2.20;;
26540;SDS011;14206;50.202;10.948;2023-03-24T01:42:41;2.90;;;2.38;;
26540;SDS011;14206;50.202;10.948;2023-03-24T01:48:18;2.92;;;2.30;;
26540;SDS011;14206;50.202;10.948;2023-03-24T01:51:10;3.15;;;2.85;;
26540;SDS011;14206;50.202;10.948;2023-03-24T01:53:39;2.97;;;2.53;;
26540;SDS011;14206;50.202;10.948;2023-03-24T01:56:15;3.15;;;2.67;;
26540;SDS011;14206;50.202;10.948;2023-03-24T01:58:44;3.58;;;2.70;;
26540;SDS011;14206;50.202;10.948;2023-03-24T02:01:20;2.17;;;1.98;;
26540;SDS011;14206;50.202;10.948;2023-03-24T02:03:59;2.47;;;2.28;;
26540;SDS011;14206;50.202;10.948;2023-03-24T02:06:33;2.58;;;2.38;;
26540;SDS011;14206;50.202;10.948;2023-03-24T02:09:02;2.00;;;1.80;;
26540;SDS011;14206;50.202;10.948;2023-03-24T02:11:31;2.58;;;2.00;;
26540;SDS011;14206;50.202;10.948;2023-03-24T02:14:02;2.30;;;2.00;;
26540;SDS011;14206;50.202;10.948;2023-03-24T02:16:52;2.10;;;1.90;;
26540;SDS011;14206;50.202;10.948;2023-03-24T02:19:37;2.85;;;2.10;;
26540;SDS011;14206;50.202;10.948;2023-03-24T02:22:40;2.40;;;2.20;;
26540;SDS011;14206;50.202;10.948;2023-03-24T02:44:40;2.58;;;2.38;;
26540;SDS011;14206;50.202;10.948;2023-03-24T02:47:19;2.38;;;2.08;;
26540;SDS011;14206;50.202;10.948;2023-03-24T02:50:03;4.60;;;2.90;;
26540;SDS011;14206;50.202;10.948;2023-03-24T02:52:45;3.10;;;2.80;;
26540;SDS011;14206;50.202;10.948;2023-03-24T02:55:22;3.55;;;3.10;;
26540;SDS011;14206;50.202;10.948;2023-03-24T02:57:57;3.05;;;2.67;;
26540;SDS011;14206;50.202;10.948;2023-03-24T03:00:54;3.22;;;2.78;;
26540;SDS011;14206;50.202;10.948;2023-03-24T03:06:21;3.45;;;3.10;;
26540;SDS011;14206;50.202;10.948;2023-03-24T03:08:54;3.72;;;3.22;;
26540;SDS011;14206;50.202;10.948;2023-03-24T03:11:24;3.28;;;2.97;;
26540;SDS011;14206;50.202;10.948;2023-03-24T03:13:52;4.53;;;3.70;;
26540;SDS011;14206;50.202;10.948;2023-03-24T03:16:33;3.38;;;3.08;;
26540;SDS011;14206;50.202;10.948;2023-03-24T03:19:40;4.00;;;3.22;;
26540;SDS011;14206;50.202;10.948;2023-03-24T03:22:38;4.85;;;3.53;;
26540;SDS011;14206;50.202;10.948;2023-03-24T03:25:10;3.70;;;3.13;;
26540;SDS011;14206;50.202;10.948;2023-03-24T03:27:41;4.90;;;3.22;;
26540;SDS011;14206;50.202;10.948;2023-03-24T03:30:17;4.05;;;3.45;;
26540;SDS011;14206;50.202;10.948;2023-03-24T03:32:52;3.35;;;2.80;;
26540;SDS011;14206;50.202;10.948;2023-03-24T03:35:28;3.83;;;3.20;;
26540;SDS011;14206;50.202;10.948;2023-03-24T03:38:10;4.30;;;3.40;;
26540;SDS011;14206;50.202;10.948;2023-03-24T03:41:00;4.05;;;2.88;;
26540;SDS011;14206;50.202;10.948;2023-03-24T03:43:33;4.30;;;3.20;;
26540;SDS011;14206;50.202;10.948;2023-03-24T03:46:01;3.63;;;2.95;;
26540;SDS011;14206;50.202;10.948;2023-03-24T03:48:33;3.60;;;3.00;;
26540;SDS011;14206;50.202;10.948;2023-03-24T03:51:01;3.50;;;2.75;;
26540;SDS011;14206;50.202;10.948;2023-03-24T03:56:10;4.07;;;3.17;;
26540;SDS011;14206;50.202;10.948;2023-03-24T03:58:48;3.58;;;3.00;;
26540;SDS011;14206;50.202;10.948;2023-03-24T04:01:16;5.35;;;3.25;;
26540;SDS011;14206;50.202;10.948;2023-03-24T04:07:36;4.75;;;3.60;;
26540;SDS011;14206;50.202;10.948;2023-03-24T04:13:26;3.50;;;3.20;;
26540;SDS011;14206;50.202;10.948;2023-03-24T04:19:51;4.22;;;3.47;;
26540;SDS011;14206;50.202;10.948;2023-03-24T04:22:27;3.53;;;3.13;;
26540;SDS011;14206;50.202;10.948;2023-03-24T04:33:52;3.63;;;3.10;;
26540;SDS011;14206;50.202;10.948;2023-03-24T04:37:15;3.90;;;2.97;;
26540;SDS011;14206;50.202;10.948;2023-03-24T04:39:59;4.55;;;3.75;;
26540;SDS011;14206;50.202;10.948;2023-03-24T04:42:35;6.18;;;3.38;;
26540;SDS011;14206;50.202;10.948;2023-03-24T04:45:14;4.15;;;3.15;;
26540;SDS011;14206;50.202;10.948;2023-03-24T04:48:14;5.40;;;3.30;;
26540;SDS011;14206;50.202;10.948;2023-03-24T04:51:05;5.32;;;3.90;;
26540;SDS011;14206;50.202;10.948;2023-03-24T04:53:52;4.65;;;3.53;;
26540;SDS011;14206;50.202;10.948;2023-03-24T04:59:02;5.70;;;3.85;;
26540;SDS011;14206;50.202;10.948;2023-03-24T05:01:30;4.85;;;3.80;;
26540;SDS011;14206;50.202;10.948;2023-03-24T05:04:21;4.60;;;4.00;;
26540;SDS011;14206;50.202;10.948;2023-03-24T05:06:50;4.85;;;3.85;;
26540;SDS011;14206;50.202;10.948;2023-03-24T05:09:22;5.70;;;3.97;;
26540;SDS011;14206;50.202;10.948;2023-03-24T05:11:50;4.93;;;3.65;;
26540;SDS011;14206;50.202;10.948;2023-03-24T05:14:19;4.28;;;3.60;;
26540;SDS011;14206;50.202;10.948;2023-03-24T05:16:46;5.10;;;3.88;;
26540;SDS011;14206;50.202;10.948;2023-03-24T05:19:16;4.32;;;3.63;;
26540;SDS011;14206;50.202;10.948;2023-03-24T05:21:43;4.57;;;3.67;;
26540;SDS011;14206;50.202;10.948;2023-03-24T05:24:10;3.75;;;3.35;;
26540;SDS011;14206;50.202;10.948;2023-03-24T05:26:37;3.50;;;3.20;;
26540;SDS011;14206;50.202;10.948;2023-03-24T05:29:13;4.35;;;3.50;;
26540;SDS011;14206;50.202;10.948;2023-03-24T05:31:40;4.05;;;3.55;;
26540;SDS011;14206;50.202;10.948;2023-03-24T05:34:08;5.82;;;3.72;;
26540;SDS011;14206;50.202;10.948;2023-03-24T05:36:57;4.00;;;3.38;;
26540;SDS011;14206;50.202;10.948;2023-03-24T05:39:24;4.55;;;3.30;;
26540;SDS011;14206;50.202;10.948;2023-03-24T05:42:01;4.30;;;3.47;;
26540;SDS011;14206;50.202;10.948;2023-03-24T05:44:28;3.97;;;3.28;;
26540;SDS011;14206;50.202;10.948;2023-03-24T05:47:09;5.63;;;3.50;;
26540;SDS011;14206;50.202;10.948;2023-03-24T05:49:35;4.65;;;3.05;;
26540;SDS011;14206;50.202;10.948;2023-03-24T05:52:03;4.30;;;3.47;;
26540;SDS011;14206;50.202;10.948;2023-03-24T05:54:31;3.85;;;3.20;;
26540;SDS011;14206;50.202;10.948;2023-03-24T05:57:12;4.80;;;3.60;;
26540;SDS011;14206;50.202;10.948;2023-03-24T06:00:10;3.55;;;2.92;;
26540;SDS011;14206;50.202;10.948;2023-03-24T06:02:53;4.63;;;3.40;;
26540;SDS011;14206;50.202;10.948;2023-03-24T06:05:27;3.70;;;2.90;;
26540;SDS011;14206;50.202;10.948;2023-03-24T06:07:54;3.72;;;3.33;;
26540;SDS011;14206;50.202;10.948;2023-03-24T06:10:25;3.47;;;3.15;;
26540;SDS011;14206;50.202;10.948;2023-03-24T06:12:53;3.83;;;3.28;;
26540;SDS011;14206;50.202;10.948;2023-03-24T06:15:22;3.60;;;3.25;;
26540;SDS011;14206;50.202;10.948;2023-03-24T06:17:58;4.03;;;3.30;;
26540;SDS011;14206;50.202;10.948;2023-03-24T06:20:32;4.03;;;3.30;;
26540;SDS011;14206;50.202;10.948;2023-03-24T06:23:06;3.22;;;2.92;;
26540;SDS011;14206;50.202;10.948;2023-03-24T06:25:45;4.68;;;3.38;;
26540;SDS011;14206;50.202;10.948;2023-03-24T06:28:17;4.72;;;3.80;;
26540;SDS011;14206;50.202;10.948;2023-03-24T06:30:45;6.15;;;3.80;;
26540;SDS011;14206;50.202;10.948;2023-03-24T06:33:18;5.32;;;3.70;;
26540;SDS011;14206;50.202;10.948;2023-03-24T06:35:47;4.72;;;3.72;;
26540;SDS011;14206;50.202;10.948;2023-03-24T06:38:16;5.03;;;3.70;;
26540;SDS011;14206;50.202;10.948;2023-03-24T06:40:43;6.13;;;3.55;;
26540;SDS011;14206;50.202;10.948;2023-03-24T06:43:11;4.97;;;3.75;;
26540;SDS011;14206;50.202;10.948;2023-03-24T06:45:40;3.85;;;3.47;;
26540;SDS011;14206;50.202;10.948;2023-03-24T06:48:13;5.35;;;3.55;;
26540;SDS011;14206;50.202;10.948;2023-03-24T06:50:41;3.78;;;3.20;;
26540;SDS011;14206;50.202;10.948;2023-03-24T06:53:09;5.07;;;3.92;;
26540;SDS011;14206;50.202;10.948;2023-03-24T06:55:37;4.13;;;3.72;;
26540;SDS011;14206;50.202;10.948;2023-03-24T06:58:05;4.53;;;3.67;;
26540;SDS011;14206;50.202;10.948;2023-03-24T07:00:54;4.07;;;3.47;;
26540;SDS011;14206;50.202;10.948;2023-03-24T07:03:25;4.32;;;3.30;;
26540;SDS011;14206;50.202;10.948;2023-03-24T07:06:11;4.35;;;3.50;;
26540;SDS011;14206;50.202;10.948;2023-03-24T07:08:38;3.92;;;2.97;;
26540;SDS011;14206;50.202;10.948;2023-03-24T07:11:06;3.95;;;3.30;;
26540;SDS011;14206;50.202;10.948;2023-03-24T07:13:36;5.65;;;3.63;;
26540;SDS011;14206;50.202;10.948;2023-03-24T07:16:03;4.95;;;2.83;;
26540;SDS011;14206;50.202;10.948;2023-03-24T07:18:31;3.97;;;2.83;;
26540;SDS011;14206;50.202;10.948;2023-03-24T07:21:02;5.13;;;3.08;;
26540;SDS011;14206;50.202;10.948;2023-03-24T07:23:30;4.57;;;2.92;;
26540;SDS011;14206;50.202;10.948;2023-03-24T07:26:02;3.63;;;2.95;;
26540;SDS011;14206;50.202;10.948;2023-03-24T07:28:47;3.90;;;3.03;;
26540;SDS011;14206;50.202;10.948;2023-03-24T07:31:25;3.15;;;2.72;;
26540;SDS011;14206;50.202;10.948;2023-03-24T07:33:58;3.15;;;2.67;;
26540;SDS011;14206;50.202;10.948;2023-03-24T07:36:27;3.22;;;2.88;;
26540;SDS011;14206;50.202;10.948;2023-03-24T07:38:55;3.30;;;2.72;;
26540;SDS011;14206;50.202;10.948;2023-03-24T07:41:29;3.22;;;2.60;;
26540;SDS011;14206;50.202;10.948;2023-03-24T07:44:00;2.35;;;2.15;;
26540;SDS011;14206;50.202;10.948;2023-03-24T07:46:32;3.63;;;2.25;;
26540;SDS011;14206;50.202;10.948;2023-03-24T07:48:59;2.53;;;2.33;;
26540;SDS011;14206;50.202;10.948;2023-03-24T07:51:46;2.10;;;1.90;;
26540;SDS011;14206;50.202;10.948;2023-03-24T07:54:20;2.10;;;1.90;;
26540;SDS011;14206;50.202;10.948;2023-03-24T07:56:47;2.90;;;2.08;;
26540;SDS011;14206;50.202;10.948;2023-03-24T07:59:16;1.67;;;1.58;;
26540;SDS011;14206;50.202;10.948;2023-03-24T08:02:00;1.50;;;1.38;;
26540;SDS011;14206;50.202;10.948;2023-03-24T08:04:36;1.80;;;1.50;;
26540;SDS011;14206;50.202;10.948;2023-03-24T08:07:17;2.72;;;1.60;;
26540;SDS011;14206;50.202;10.948;2023-03-24T08:09:44;1.80;;;1.60;;
26540;SDS011;14206;50.202;10.948;2023-03-24T08:12:11;1.92;;;1.55;;
26540;SDS011;14206;50.202;10.948;2023-03-24T08:14:45;3.38;;;1.83;;
26540;SDS011;14206;50.202;10.948;2023-03-24T08:17:12;1.50;;;1.40;;
26540;SDS011;14206;50.202;10.948;2023-03-24T08:19:39;2.22;;;1.50;;
26540;SDS011;14206;50.202;10.948;2023-03-24T08:24:52;2.33;;;1.73;;
26540;SDS011;14206;50.202;10.948;2023-03-24T08:27:19;1.83;;;1.42;;
26540;SDS011;14206;50.202;10.948;2023-03-24T08:29:45;3.00;;;1.50;;
26540;SDS011;14206;50.202;10.948;2023-03-24T08:32:12;2.25;;;1.73;;
26540;SDS011;14206;50.202;10.948;2023-03-24T08:34:39;2.05;;;1.60;;
26540;SDS011;14206;50.202;10.948;2023-03-24T08:37:06;1.70;;;1.50;;
26540;SDS011;14206;50.202;10.948;2023-03-24T08:39:33;2.22;;;1.75;;
26540;SDS011;14206;50.202;10.948;2023-03-24T08:42:01;1.67;;;1.58;;
26540;SDS011;14206;50.202;10.948;2023-03-24T08:44:28;1.60;;;1.50;;
26540;SDS011;14206;50.202;10.948;2023-03-24T08:46:59;2.00;;;1.80;;
26540;SDS011;14206;50.202;10.948;2023-03-24T08:49:26;2.40;;;1.73;;
26540;SDS011;14206;50.202;10.948;2023-03-24T08:51:53;2.45;;;1.70;;
26540;SDS011;14206;50.202;10.948;2023-03-24T08:54:20;2.10;;;1.90;;
26540;SDS011;14206;50.202;10.948;2023-03-24T08:56:49;2.15;;;1.95;;
26540;SDS011;14206;50.202;10.948;2023-03-24T08:59:16;3.85;;;1.90;;
26540;SDS011;14206;50.202;10.948;2023-03-24T09:01:43;2.42;;;1.80;;
26540;SDS011;14206;50.202;10.948;2023-03-24T09:04:10;1.95;;;1.77;;
26540;SDS011;14206;50.202;10.948;2023-03-24T09:06:38;1.90;;;1.70;;
26540;SDS011;14206;50.202;10.948;2023-03-24T09:09:05;1.90;;;1.77;;
26540;SDS011;14206;50.202;10.948;2023-03-24T09:11:33;2.22;;;1.92;;
26540;SDS011;14206;50.202;10.948;2023-03-24T09:14:03;2.05;;;1.80;;
26540;SDS011;14206;50.202;10.948;2023-03-24T09:16:30;2.35;;;1.80;;
26540;SDS011;14206;50.202;10.948;2023-03-24T09:18:57;2.35;;;1.80;;
26540;SDS011;14206;50.202;10.948;2023-03-24T09:21:24;2.17;;;1.77;;
26540;SDS011;14206;50.202;10.948;2023-03-24T09:23:50;1.75;;;1.65;;
26540;SDS011;14206;50.202;10.948;2023-03-24T09:26:17;2.25;;;1.85;;
26540;SDS011;14206;50.202;10.948;2023-03-24T09:28:44;2.40;;;1.75;;
26540;SDS011;14206;50.202;10.948;2023-03-24T09:31:11;1.70;;;1.60;;
26540;SDS011;14206;50.202;10.948;2023-03-24T09:33:38;2.55;;;1.83;;
26540;SDS011;14206;50.202;10.948;2023-03-24T09:36:05;2.17;;;1.80;;
26540;SDS011;14206;50.202;10.948;2023-03-24T09:38:32;2.20;;;1.90;;
26540;SDS011;14206;50.202;10.948;2023-03-24T09:41:00;3.00;;;2.08;;
26540;SDS011;14206;50.202;10.948;2023-03-24T09:46:04;2.20;;;2.00;;
26540;SDS011;14206;50.202;10.948;2023-03-24T09:48:47;2.47;;;2.03;;
26540;SDS011;14206;50.202;10.948;2023-03-24T09:51:21;2.33;;;2.10;;
26540;SDS011;14206;50.202;10.948;2023-03-24T09:53:56;2.65;;;2.13;;
26540;SDS011;14206;50.202;10.948;2023-03-24T09:56:44;2.20;;;2.00;;
26540;SDS011;14206;50.202;10.948;2023-03-24T09:59:17;2.65;;;2.20;;
26540;SDS011;14206;50.202;10.948;2023-03-24T10:02:14;2.35;;;2.15;;
26540;SDS011;14206;50.202;10.948;2023-03-24T10:04:43;2.60;;;2.40;;
26540;SDS011;14206;50.202;10.948;2023-03-24T10:09:47;3.13;;;2.15;;
26540;SDS011;14206;50.202;10.948;2023-03-24T10:12:21;2.67;;;2.47;;
26540;SDS011;14206;50.202;10.948;2023-03-24T10:15:13;2.40;;;2.00;;
26540;SDS011;14206;50.202;10.948;2023-03-24T10:18:09;2.60;;;2.22;;
26540;SDS011;14206;50.202;10.948;2023-03-24T10:23:28;2.35;;;1.80;;
26540;SDS011;14206;50.202;10.948;2023-03-24T10:29:16;1.70;;;1.60;;
26540;SDS011;14206;50.202;10.948;2023-03-24T10:32:11;2.10;;;1.75;;
26540;SDS011;14206;50.202;10.948;2023-03-24T10:34:45;2.63;;;2.08;;
26540;SDS011;14206;50.202;10.948;2023-03-24T10:37:16;2.97;;;1.70;;
26540;SDS011;14206;50.202;10.948;2023-03-24T10:39:43;1.73;;;1.63;;
26540;SDS011;14206;50.202;10.948;2023-03-24T10:42:12;2.08;;;1.83;;
26540;SDS011;14206;50.202;10.948;2023-03-24T10:44:47;2.97;;;1.80;;
26540;SDS011;14206;50.202;10.948;2023-03-24T10:47:17;1.52;;;1.40;;
26540;SDS011;14206;50.202;10.948;2023-03-24T10:49:53;1.98;;;1.58;;
26540;SDS011;14206;50.202;10.948;2023-03-24T10:52:23;2.50;;;1.70;;
26540;SDS011;14206;50.202;10.948;2023-03-24T10:54:54;1.92;;;1.73;;
26540;SDS011;14206;50.202;10.948;2023-03-24T10:57:28;2.22;;;1.60;;
26540;SDS011;14206;50.202;10.948;2023-03-24T10:59:56;2.13;;;1.67;;
26540;SDS011;14206;50.202;10.948;2023-03-24T11:02:28;2.08;;;1.60;;
26540;SDS011;14206;50.202;10.948;2023-03-24T11:04:57;2.00;;;1.63;;
26540;SDS011;14206;50.202;10.948;2023-03-24T11:07:43;2.83;;;1.88;;
26540;SDS011;14206;50.202;10.948;2023-03-24T11:14:43;1.55;;;1.40;;
26540;SDS011;14206;50.202;10.948;2023-03-24T11:17:11;1.45;;;1.35;;
26540;SDS011;14206;50.202;10.948;2023-03-24T11:19:52;2.80;;;1.48;;
26540;SDS011;14206;50.202;10.948;2023-03-24T11:28:34;1.75;;;1.48;;
26540;SDS011;14206;50.202;10.948;2023-03-24T11:31:08;1.50;;;1.40;;
26540;SDS011;14206;50.202;10.948;2023-03-24T11:33:44;1.80;;;1.40;;
26540;SDS011;14206;50.202;10.948;2023-03-24T11:41:49;1.40;;;1.30;;
26540;SDS011;14206;50.202;10.948;2023-03-24T11:44:20;1.30;;;1.02;;
26540;SDS011;14206;50.202;10.948;2023-03-24T11:46:50;1.83;;;1.30;;
26540;SDS011;14206;50.202;10.948;2023-03-24T11:49:21;1.40;;;1.30;;
26540;SDS011;14206;50.202;10.948;2023-03-24T11:51:58;1.20;;;1.15;;
26540;SDS011;14206;50.202;10.948;2023-03-24T11:54:27;1.48;;;1.20;;
26540;SDS011;14206;50.202;10.948;2023-03-24T11:56:58;1.75;;;1.30;;
26540;SDS011;14206;50.202;10.948;2023-03-24T12:13:12;1.58;;;1.10;;
26540;SDS011;14206;50.202;10.948;2023-03-24T12:16:42;1.33;;;0.93;;
26540;SDS011;14206;50.202;10.948;2023-03-24T12:30:45;0.60;;;0.52;;
26540;SDS011;14206;50.202;10.948;2023-03-24T12:41:29;1.40;;;0.40;;
26540;SDS011;14206;50.202;10.948;2023-03-24T12:44:28;0.40;;;0.30;;
26540;SDS011;14206;50.202;10.948;2023-03-24T12:47:20;0.28;;;0.28;;
26540;SDS011;14206;50.202;10.948;2023-03-24T12:57:41;0.40;;;0.40;;
26540;SDS011;14206;50.202;10.948;2023-03-24T13:00:17;0.68;;;0.57;;
26540;SDS011;14206;50.202;10.948;2023-03-24T13:03:04;0.95;;;0.50;;
26540;SDS011;14206;50.202;10.948;2023-03-24T13:05:39;0.43;;;0.43;;
26540;SDS011;14206;50.202;10.948;2023-03-24T13:08:12;0.88;;;0.50;;
26540;SDS011;14206;50.202;10.948;2023-03-24T13:10:44;0.73;;;0.30;;
26540;SDS011;14206;50.202;10.948;2023-03-24T13:13:23;0.40;;;0.40;;
26540;SDS011;14206;50.202;10.948;2023-03-24T13:16:01;0.75;;;0.50;;
26540;SDS011;14206;50.202;10.948;2023-03-24T13:18:46;0.30;;;0.30;;
26540;SDS011;14206;50.202;10.948;2023-03-24T13:21:18;0.30;;;0.30;;
26540;SDS011;14206;50.202;10.948;2023-03-24T13:23:53;0.38;;;0.30;;
26540;SDS011;14206;50.202;10.948;2023-03-24T13:32:04;0.65;;;0.30;;
26540;SDS011;14206;50.202;10.948;2023-03-24T13:34:54;0.75;;;0.45;;
26540;SDS011;14206;50.202;10.948;2023-03-24T13:37:39;0.60;;;0.40;;
26540;SDS011;14206;50.202;10.948;2023-03-24T13:40:24;0.30;;;0.30;;
26540;SDS011;14206;50.202;10.948;2023-03-24T13:42:55;0.40;;;0.40;;
26540;SDS011;14206;50.202;10.948;2023-03-24T13:45:38;1.33;;;0.50;;
26540;SDS011;14206;50.202;10.948;2023-03-24T13:51:04;2.00;;;0.73;;
26540;SDS011;14206;50.202;10.948;2023-03-24T13:53:53;0.90;;;0.60;;
26540;SDS011;14206;50.202;10.948;2023-03-24T13:56:36;1.02;;;0.60;;
26540;SDS011;14206;50.202;10.948;2023-03-24T14:10:22;0.68;;;0.50;;
26540;SDS011;14206;50.202;10.948;2023-03-24T14:15:26;1.80;;;0.60;;
26540;SDS011;14206;50.202;10.948;2023-03-24T14:17:54;0.65;;;0.57;;
26540;SDS011;14206;50.202;10.948;2023-03-24T14:20:39;0.95;;;0.70;;
26540;SDS011;14206;50.202;10.948;2023-03-24T14:23:45;0.68;;;0.60;;
26540;SDS011;14206;50.202;10.948;2023-03-24T14:28:51;2.58;;;0.70;;
26540;SDS011;14206;50.202;10.948;2023-03-24T14:31:26;0.85;;;0.70;;
26540;SDS011;14206;50.202;10.948;2023-03-24T14:36:28;1.77;;;0.80;;
26540;SDS011;14206;50.202;10.948;2023-03-24T14:39:26;1.30;;;0.80;;
26540;SDS011;14206;50.202;10.948;2023-03-24T14:41:57;0.93;;;0.70;;
26540;SDS011;14206;50.202;10.948;2023-03-24T14:47:18;2.22;;;0.70;;
26540;SDS011;14206;50.202;10.948;2023-03-24T14:49:47;0.77;;;0.68;;
26540;SDS011;14206;50.202;10.948;2023-03-24T14:52:31;2.97;;;0.75;;
26540;SDS011;14206;50.202;10.948;2023-03-24T14:54:58;1.50;;;0.70;;
26540;SDS011;14206;50.202;10.948;2023-03-24T14:57:27;0.93;;;0.70;;
26540;SDS011;14206;50.202;10.948;2023-03-24T15:00:08;1.73;;;0.63;;
26540;SDS011;14206;50.202;10.948;2023-03-24T15:02:47;0.77;;;0.68;;
26540;SDS011;14206;50.202;10.948;2023-03-24T15:07:59;2.75;;;0.80;;
26540;SDS011;14206;50.202;10.948;2023-03-24T15:10:26;1.60;;;0.80;;
26540;SDS011;14206;50.202;10.948;2023-03-24T15:13:01;0.70;;;0.70;;
26540;SDS011;14206;50.202;10.948;2023-03-24T15:15:28;1.25;;;0.80;;
26540;SDS011;14206;50.202;10.948;2023-03-24T15:17:55;2.25;;;0.82;;
26540;SDS011;14206;50.202;10.948;2023-03-24T15:20:23;0.90;;;0.77;;
26540;SDS011;14206;50.202;10.948;2023-03-24T15:22:53;2.75;;;0.70;;
26540;SDS011;14206;50.202;10.948;2023-03-24T15:25:24;0.82;;;0.70;;
26540;SDS011;14206;50.202;10.948;2023-03-24T15:27:53;2.33;;;1.00;;
26540;SDS011;14206;50.202;10.948;2023-03-24T15:30:23;1.90;;;1.00;;
26540;SDS011;14206;50.202;10.948;2023-03-24T15:32:50;1.67;;;0.77;;
26540;SDS011;14206;50.202;10.948;2023-03-24T15:35:19;2.15;;;0.90;;
26540;SDS011;14206;50.202;10.948;2023-03-24T15:37:51;1.45;;;0.80;;
26540;SDS011;14206;50.202;10.948;2023-03-24T15:42:57;2.25;;;0.88;;
26540;SDS011;14206;50.202;10.948;2023-03-24T15:45:36;2.05;;;0.77;;
26540;SDS011;14206;50.202;10.948;2023-03-24T15:48:13;1.27;;;0.90;;
26540;SDS011;14206;50.202;10.948;2023-03-24T15:56:27;1.67;;;0.77;;
26540;SDS011;14206;50.202;10.948;2023-03-24T16:01:38;1.92;;;0.90;;
26540;SDS011;14206;50.202;10.948;2023-03-24T16:04:12;2.60;;;0.90;;
26540;SDS011;14206;50.202;10.948;2023-03-24T16:06:44;1.25;;;1.02;;
26540;SDS011;14206;50.202;10.948;2023-03-24T16:09:19;1.77;;;0.80;;
26540;SDS011;14206;50.202;10.948;2023-03-24T16:11:47;1.27;;;0.77;;
26540;SDS011;14206;50.202;10.948;2023-03-24T16:16:47;1.48;;;0.90;;
26540;SDS011;14206;50.202;10.948;2023-03-24T16:19:17;0.98;;;0.80;;
26540;SDS011;14206;50.202;10.948;2023-03-24T16:21:44;1.42;;;0.75;;
26540;SDS011;14206;50.202;10.948;2023-03-24T16:24:11;3.72;;;0.85;;
26540;SDS011;14206;50.202;10.948;2023-03-24T16:26:38;1.58;;;0.98;;
26540;SDS011;14206;50.202;10.948;2023-03-24T16:29:21;1.75;;;0.77;;
26540;SDS011;14206;50.202;10.948;2023-03-24T16:31:52;1.73;;;0.75;;
26540;SDS011;14206;50.202;10.948;2023-03-24T16:34:21;1.08;;;0.70;;
26540;SDS011;14206;50.202;10.948;2023-03-24T16:36:49;1.23;;;0.70;;
26540;SDS011;14206;50.202;10.948;2023-03-24T16:39:18;1.13;;;0.70;;
26540;SDS011;14206;50.202;10.948;2023-03-24T16:41:47;1.77;;;0.60;;
26540;SDS011;14206;50.202;10.948;2023-03-24T16:44:14;1.13;;;0.75;;
26540;SDS011;14206;50.202;10.948;2023-03-24T16:46:43;1.95;;;0.70;;
26540;SDS011;14206;50.202;10.948;2023-03-24T16:49:13;0.82;;;0.70;;
26540;SDS011;14206;50.202;10.948;2023-03-24T16:51:41;1.42;;;0.80;;
26540;SDS011;14206;50.202;10.948;2023-03-24T16:54:09;2.22;;;1.00;;
26540;SDS011;14206;50.202;10.948;2023-03-24T16:56:36;0.95;;;0.75;;
26540;SDS011;14206;50.202;10.948;2023-03-24T16:59:04;1.42;;;0.77;;
26540;SDS011;14206;50.202;10.948;2023-03-24T17:01:35;1.13;;;0.70;;
26540;SDS011;14206;50.202;10.948;2023-03-24T17:06:42;1.20;;;0.63;;
26540;SDS011;14206;50.202;10.948;2023-03-24T17:09:15;0.70;;;0.70;;
26540;SDS011;14206;50.202;10.948;2023-03-24T17:14:13;1.45;;;0.80;;
26540;SDS011;14206;50.202;10.948;2023-03-24T17:16:41;1.38;;;0.80;;
26540;SDS011;14206;50.202;10.948;2023-03-24T17:19:10;2.22;;;0.90;;
26540;SDS011;14206;50.202;10.948;2023-03-24T17:21:42;1.00;;;0.70;;
26540;SDS011;14206;50.202;10.948;2023-03-24T17:24:33;1.65;;;0.80;;
26540;SDS011;14206;50.202;10.948;2023-03-24T17:27:01;1.08;;;0.80;;
26540;SDS011;14206;50.202;10.948;2023-03-24T17:29:29;1.50;;;0.80;;
26540;SDS011;14206;50.202;10.948;2023-03-24T17:31:56;1.63;;;0.70;;
26540;SDS011;14206;50.202;10.948;2023-03-24T17:34:23;1.05;;;0.82;;
26540;SDS011;14206;50.202;10.948;2023-03-24T17:36:50;1.45;;;1.00;;
26540;SDS011;14206;50.202;10.948;2023-03-24T17:39:17;0.90;;;0.80;;
26540;SDS011;14206;50.202;10.948;2023-03-24T17:41:45;1.42;;;0.95;;
26540;SDS011;14206;50.202;10.948;2023-03-24T17:44:12;2.22;;;1.08;;
26540;SDS011;14206;50.202;10.948;2023-03-24T17:46:39;1.98;;;1.20;;
26540;SDS011;14206;50.202;10.948;2023-03-24T17:49:06;2.67;;;1.20;;
26540;SDS011;14206;50.202;10.948;2023-03-24T17:51:33;2.28;;;1.30;;
26540;SDS011;14206;50.202;10.948;2023-03-24T17:54:00;1.90;;;1.23;;
26540;SDS011;14206;50.202;10.948;2023-03-24T17:56:27;2.22;;;1.10;;
26540;SDS011;14206;50.202;10.948;2023-03-24T17:58:54;1.98;;;1.30;;
26540;SDS011;14206;50.202;10.948;2023-03-24T18:01:23;2.13;;;1.25;;